createdAt,value
2022-10-21T00:00:18.828Z,101233.45
2022-10-21T00:02:50.178Z,101236.58
2022-10-21T00:05:21.157Z,101239.80
2022-10-21T00:07:51.703Z,101243.66
2022-10-21T00:10:23.680Z,101249.94
2022-10-21T00:12:53.157Z,101237.14
2022-10-21T00:15:23.787Z,101236.06
2022-10-21T00:17:55.294Z,101220.06
2022-10-21T00:20:24.641Z,101220.70
2022-10-21T00:22:56.349Z,101223.69
2022-10-21T00:25:25.877Z,101227.05
2022-10-21T00:27:57.585Z,101229.27
2022-10-21T00:30:27.753Z,101239.04
2022-10-21T00:33:02.150Z,101237.46
2022-10-21T00:35:34.565Z,101244.52
2022-10-21T00:38:03.348Z,101243.09
2022-10-21T00:40:33.505Z,101250.25
2022-10-21T00:43:03.627Z,101246.95
2022-10-21T00:45:35.734Z,101245.02
2022-10-21T00:48:13.310Z,101238.37
2022-10-21T00:50:54.432Z,101244.79
2022-10-21T00:53:24.010Z,101245.92
2022-10-21T00:55:57.727Z,101253.75
2022-10-21T00:58:30.581Z,101253.30
2022-10-21T01:01:03.623Z,101254.57
2022-10-21T01:03:36.264Z,101254.66
2022-10-21T01:06:09.341Z,101249.05
2022-10-21T01:08:39.260Z,101241.37
2022-10-21T01:11:13.236Z,101241.02
2022-10-21T01:14:30.946Z,101243.63
2022-10-21T01:17:40.164Z,101238.61
2022-10-21T01:20:24.968Z,101241.36
2022-10-21T01:23:33.571Z,101245.09
2022-10-21T01:26:58.925Z,101233.80
2022-10-21T01:29:54.106Z,101227.41
2022-10-21T01:32:47.762Z,101241.49
2022-10-21T01:35:37.386Z,101241.26
2022-10-21T01:38:25.041Z,101245.95
2022-10-21T01:41:18.187Z,101263.45
2022-10-21T01:43:57.285Z,101261.77
2022-10-21T01:46:34.345Z,101273.25
2022-10-21T01:49:09.707Z,101266.97
2022-10-21T01:51:39.309Z,101277.67
2022-10-21T01:54:17.252Z,101266.22
2022-10-21T01:56:47.136Z,101271.02
2022-10-21T01:59:16.628Z,101269.42
2022-10-21T02:01:47.173Z,101272.88
2022-10-21T02:04:18.767Z,101270.79
2022-10-21T02:06:50.570Z,101278.08
2022-10-21T02:09:21.020Z,101278.56
2022-10-21T02:11:52.511Z,101275.49
2022-10-21T02:14:39.318Z,101282.89
2022-10-21T02:17:13.069Z,101289.17
2022-10-21T02:19:43.507Z,101288.94
2022-10-21T02:22:17.449Z,101285.13
2022-10-21T02:25:06.029Z,101285.75
2022-10-21T02:27:37.606Z,101281.95
2022-10-21T02:30:08.742Z,101288.73
2022-10-21T02:32:50.049Z,101285.29
2022-10-21T02:35:34.158Z,101284.80
2022-10-21T02:38:29.457Z,101281.84
2022-10-21T02:41:06.547Z,101282.23
2022-10-21T02:43:53.377Z,101288.39
2022-10-21T02:46:22.761Z,101293.80
2022-10-21T02:48:53.083Z,101288.27
2022-10-21T02:51:22.050Z,101288.53
2022-10-21T02:53:51.179Z,101300.06
2022-10-21T02:56:21.131Z,101306.58
2022-10-21T02:58:51.282Z,101303.75
2022-10-21T03:01:20.868Z,101304.24
2022-10-21T03:03:50.747Z,101298.61
2022-10-21T03:06:20.174Z,101302.18
2022-10-21T03:08:49.849Z,101297.60
2022-10-21T03:11:20.083Z,101297.60
2022-10-21T03:13:50.059Z,101304.37
2022-10-21T03:16:20.068Z,101300.68
2022-10-21T03:18:49.927Z,101308.30
2022-10-21T03:21:21.125Z,101305.36
2022-10-21T03:23:50.574Z,101310.52
2022-10-21T03:26:20.061Z,101297.61
2022-10-21T03:28:50.584Z,101298.97
2022-10-21T03:31:20.371Z,101296.62
2022-10-21T03:33:51.005Z,101298.47
2022-10-21T03:36:21.134Z,101296.02
2022-10-21T03:38:50.216Z,101293.19
2022-10-21T03:41:19.618Z,101292.81
2022-10-21T03:43:49.151Z,101295.64
2022-10-21T03:46:18.870Z,101293.19
2022-10-21T03:48:48.277Z,101301.55
2022-10-21T03:51:18.831Z,101298.23
2022-10-21T03:53:48.433Z,101291.34
2022-10-21T03:56:18.222Z,101292.33
2022-10-21T03:58:48.097Z,101287.04
2022-10-21T04:01:20.006Z,101283.84
2022-10-21T04:03:49.659Z,101288.88
2022-10-21T04:06:20.183Z,101295.64
2022-10-21T04:08:51.135Z,101295.64
2022-10-21T04:11:21.195Z,101297.60
2022-10-21T04:13:51.019Z,101293.80
2022-10-21T04:16:21.930Z,101297.97
2022-10-21T04:18:50.812Z,101297.72
2022-10-21T04:21:20.798Z,101299.93
2022-10-21T04:23:51.204Z,101301.77
2022-10-21T04:26:20.993Z,101299.07
2022-10-21T04:28:51.217Z,101308.04
2022-10-21T04:31:20.811Z,101309.39
2022-10-21T04:33:51.889Z,101305.09
2022-10-21T04:36:22.850Z,101310.12
2022-10-21T04:38:52.424Z,101311.97
2022-10-21T04:41:22.033Z,101312.95
2022-10-21T04:43:51.998Z,101312.70
2022-10-21T04:46:21.346Z,101311.19
2022-10-21T04:48:52.762Z,101314.61
2022-10-21T04:51:22.607Z,101317.06
2022-10-21T04:53:52.176Z,101316.08
2022-10-21T04:56:21.882Z,101321.23
2022-10-21T04:58:52.102Z,101327.50
2022-10-21T05:01:21.590Z,101324.69
2022-10-21T05:03:52.542Z,101329.73
2022-10-21T05:06:22.575Z,101322.28
2022-10-21T05:08:53.421Z,101323.88
2022-10-21T05:11:23.819Z,101315.41
2022-10-21T05:13:54.863Z,101312.47
2022-10-21T05:16:26.354Z,101315.41
2022-10-21T05:18:57.785Z,101316.77
2022-10-21T05:21:28.526Z,101314.20
2022-10-21T05:23:59.540Z,101316.16
2022-10-21T05:26:30.844Z,101316.78
2022-10-21T05:29:00.677Z,101321.22
2022-10-21T05:31:31.160Z,101327.48
2022-10-21T05:34:02.306Z,101319.13
2022-10-21T05:36:32.008Z,101322.45
2022-10-21T05:39:02.125Z,101321.83
2022-10-21T05:41:32.789Z,101330.19
2022-10-21T05:44:03.392Z,101324.56
2022-10-21T05:46:33.477Z,101331.69
2022-10-21T05:49:04.338Z,101329.59
2022-10-21T05:51:35.375Z,101334.14
2022-10-21T05:54:05.412Z,101335.61
2022-10-21T05:56:38.295Z,101337.94
2022-10-21T05:59:10.223Z,101345.06
2022-10-21T06:01:41.786Z,101341.86
2022-10-21T06:04:14.117Z,101333.59
2022-10-21T06:06:44.278Z,101341.58
2022-10-21T06:09:14.253Z,101338.73
2022-10-21T06:11:45.798Z,101340.34
2022-10-21T06:14:16.906Z,101338.47
2022-10-21T06:16:48.827Z,101339.31
2022-10-21T06:19:20.287Z,101335.83
2022-10-21T06:21:51.077Z,101339.61
2022-10-21T06:24:22.083Z,101339.95
2022-10-21T06:26:52.834Z,101340.78
2022-10-21T06:29:23.440Z,101336.69
2022-10-21T06:31:52.869Z,101338.02
2022-10-21T06:34:23.020Z,101340.33
2022-10-21T06:36:53.178Z,101340.66
2022-10-21T06:39:24.064Z,101348.13
2022-10-21T06:41:54.375Z,101345.48
2022-10-21T06:44:31.958Z,101351.95
2022-10-21T06:47:02.237Z,101349.70
2022-10-21T06:49:32.786Z,101346.31
2022-10-21T06:52:02.396Z,101345.01
2022-10-21T06:54:32.862Z,101354.95
2022-10-21T06:57:02.828Z,101351.55
2022-10-21T06:59:33.526Z,101357.88
2022-10-21T07:02:03.691Z,101355.70
2022-10-21T07:04:33.873Z,101356.37
2022-10-21T07:07:04.481Z,101352.60
2022-10-21T07:09:36.054Z,101358.48
2022-10-21T07:12:05.935Z,101358.78
2022-10-21T07:14:35.327Z,101350.57
2022-10-21T07:17:06.623Z,101365.70
2022-10-21T07:19:37.058Z,101359.43
2022-10-21T07:22:06.309Z,101359.94
2022-10-21T07:24:36.671Z,101364.31
2022-10-21T07:27:07.981Z,101361.25
2022-10-21T07:29:39.570Z,101360.75
2022-10-21T07:32:09.660Z,101363.76
2022-10-21T07:34:39.984Z,101360.70
2022-10-21T07:37:10.463Z,101360.59
2022-10-21T07:39:41.734Z,101357.00
2022-10-21T07:42:12.782Z,101355.77
2022-10-21T07:44:42.731Z,101357.27
2022-10-21T07:47:12.490Z,101360.26
2022-10-21T07:49:41.521Z,101360.53
2022-10-21T07:52:11.827Z,101364.38
2022-10-21T07:54:41.832Z,101365.23
2022-10-21T07:57:12.652Z,101362.99
2022-10-21T07:59:42.330Z,101362.75
2022-10-21T08:02:14.577Z,101365.17
2022-10-21T08:04:45.256Z,101371.03
2022-10-21T08:07:15.316Z,101362.62
2022-10-21T08:09:45.987Z,101372.91
2022-10-21T08:12:16.492Z,101371.00
2022-10-21T08:14:47.548Z,101366.16
2022-10-21T08:17:17.405Z,101364.54
2022-10-21T08:19:48.098Z,101364.31
2022-10-21T08:22:17.671Z,101367.14
2022-10-21T08:24:47.946Z,101361.42
2022-10-21T08:27:17.535Z,101367.62
2022-10-21T08:29:49.124Z,101364.78
2022-10-21T08:32:18.641Z,101355.79
2022-10-21T08:34:49.451Z,101365.37
2022-10-21T08:37:23.465Z,101358.21
2022-10-21T08:39:52.412Z,101359.17
2022-10-21T08:42:23.543Z,101354.34
2022-10-21T08:45:03.060Z,101350.87
2022-10-21T08:47:45.035Z,101358.85
2022-10-21T08:50:17.480Z,101360.06
2022-10-21T08:53:01.720Z,101363.03
2022-10-21T08:55:40.136Z,101368.77
2022-10-21T08:58:19.149Z,101362.19
2022-10-21T09:01:02.669Z,101361.56
2022-10-21T09:04:19.772Z,101358.56
2022-10-21T09:07:11.191Z,101363.83
2022-10-21T09:09:55.571Z,101361.14
2022-10-21T09:13:02.385Z,101357.47
2022-10-21T09:16:01.901Z,101361.63
2022-10-21T09:19:09.891Z,101355.20
2022-10-21T09:22:33.234Z,101350.62
2022-10-21T09:25:01.026Z,101356.44
2022-10-21T09:27:32.390Z,101354.76
2022-10-21T09:30:03.489Z,101357.33
2022-10-21T09:32:36.486Z,101349.84
2022-10-21T09:35:28.739Z,101352.06
2022-10-21T09:38:21.033Z,101350.19
2022-10-21T09:40:52.834Z,101351.39
2022-10-21T09:43:25.513Z,101355.48
2022-10-21T09:45:54.723Z,101354.47
2022-10-21T09:51:31.634Z,101341.49
2022-10-21T09:54:11.675Z,101343.55
2022-10-21T09:56:58.978Z,101341.37
2022-10-21T09:59:32.892Z,101342.77
2022-10-21T10:02:06.701Z,101334.44
2022-10-21T10:04:37.442Z,101331.73
2022-10-21T10:07:34.282Z,101331.61
2022-10-21T10:10:08.468Z,101333.86
2022-10-21T10:12:37.416Z,101328.87
2022-10-21T10:15:15.212Z,101310.67
2022-10-21T10:17:46.324Z,101312.73
2022-10-21T10:20:20.341Z,101314.61
2022-10-21T10:23:05.441Z,101314.29
2022-10-21T10:25:39.042Z,101310.03
2022-10-21T10:28:15.255Z,101315.89
2022-10-21T10:30:48.866Z,101316.27
2022-10-21T10:33:24.120Z,101307.41
2022-10-21T10:36:05.510Z,101313.39
2022-10-21T10:38:48.526Z,101309.83
2022-10-21T10:41:18.196Z,101312.93
2022-10-21T10:43:53.540Z,101313.11
2022-10-21T10:46:34.914Z,101310.38
2022-10-21T10:49:23.831Z,101308.84
2022-10-21T10:52:11.639Z,101306.62
2022-10-21T10:54:43.165Z,101295.53
2022-10-21T10:57:29.853Z,101286.50
2022-10-21T11:00:10.103Z,101279.68
2022-10-21T11:02:51.222Z,101276.12
2022-10-21T11:05:46.390Z,101264.86
2022-10-21T11:08:36.029Z,101267.42
2022-10-21T11:11:16.852Z,101269.14
2022-10-21T11:13:47.867Z,101265.74
2022-10-21T11:16:50.498Z,101261.48
2022-10-21T11:19:30.194Z,101254.97
2022-10-21T11:22:17.763Z,101255.47
2022-10-21T11:24:58.111Z,101259.23
2022-10-21T11:28:09.973Z,101253.58
2022-10-21T11:31:09.152Z,101247.09
2022-10-21T11:33:57.659Z,101246.77
2022-10-21T11:36:40.506Z,101233.27
2022-10-21T11:39:36.141Z,101226.09
2022-10-21T11:42:16.531Z,101220.45
2022-10-21T11:45:20.788Z,101220.97
2022-10-21T11:47:58.825Z,101220.80
2022-10-21T11:51:00.311Z,101220.63
2022-10-21T11:53:50.633Z,101222.67
2022-10-21T11:56:47.267Z,101217.20
2022-10-21T11:59:54.166Z,101224.72
2022-10-21T12:02:44.632Z,101233.09
2022-10-21T12:05:28.239Z,101230.34
2022-10-21T12:08:18.533Z,101220.77
2022-10-21T12:11:17.403Z,101219.91
2022-10-21T12:13:55.537Z,101212.56
2022-10-21T12:16:30.617Z,101212.56
2022-10-21T12:19:05.619Z,101212.56
2022-10-21T12:21:37.016Z,101208.64
2022-10-21T12:24:33.807Z,101211.89
2022-10-21T12:27:25.583Z,101213.08
2022-10-21T12:30:09.037Z,101214.61
2022-10-21T12:32:52.679Z,101222.98
2022-10-21T12:35:45.559Z,101215.64
2022-10-21T12:38:30.529Z,101221.80
2022-10-21T12:41:34.352Z,101213.78
2022-10-21T12:44:22.175Z,101212.75
2022-10-21T12:47:03.102Z,101211.90
2022-10-21T12:49:34.010Z,101211.89
2022-10-21T12:52:10.909Z,101201.63
2022-10-21T12:54:53.739Z,101203.52
2022-10-21T12:57:38.512Z,101200.27
2022-10-21T13:00:33.646Z,101203.52
2022-10-21T13:03:10.601Z,101205.41
2022-10-21T13:05:49.820Z,101200.97
2022-10-21T13:08:28.931Z,101196.87
2022-10-21T13:11:12.829Z,101194.48
2022-10-21T13:13:47.474Z,101187.48
2022-10-21T13:16:25.603Z,101193.11
2022-10-21T13:19:00.050Z,101191.91
2022-10-21T13:21:43.338Z,101190.03
2022-10-21T13:24:23.721Z,101193.95
2022-10-21T13:27:04.417Z,101196.84
2022-10-21T13:29:41.908Z,101194.62
2022-10-21T13:32:30.258Z,101204.19
2022-10-21T13:35:20.439Z,101204.87
2022-10-21T13:37:56.282Z,101205.89
2022-10-21T13:40:30.794Z,101208.62
2022-10-21T13:43:03.360Z,101208.44
2022-10-21T13:45:37.914Z,101209.81
2022-10-21T13:48:23.295Z,101200.25
2022-10-21T13:50:53.311Z,101205.37
2022-10-21T13:53:28.402Z,101212.87
2022-10-21T13:56:01.421Z,101219.36
2022-10-21T13:58:36.719Z,101214.92
2022-10-21T14:01:12.134Z,101209.11
2022-10-21T14:03:42.311Z,101204.65
2022-10-21T14:06:29.310Z,101209.77
2022-10-21T14:09:01.866Z,101195.59
2022-10-21T14:11:36.492Z,101203.28
2022-10-21T14:14:07.662Z,101201.23
2022-10-21T14:16:41.831Z,101204.64
2022-10-21T14:19:21.165Z,101205.66
2022-10-21T14:21:56.636Z,101193.53
2022-10-21T14:24:42.369Z,101203.09
2022-10-21T14:27:15.733Z,101198.83
2022-10-21T14:29:45.708Z,101201.73
2022-10-21T14:32:16.870Z,101197.80
2022-10-21T14:35:10.863Z,101193.01
2022-10-21T14:37:47.474Z,101193.68
2022-10-21T14:40:36.010Z,101190.20
2022-10-21T14:43:09.793Z,101194.64
2022-10-21T14:45:52.021Z,101186.42
2022-10-21T14:48:41.718Z,101172.89
2022-10-21T14:51:15.244Z,101175.27
2022-10-21T14:53:57.009Z,101183.27
2022-10-21T14:56:40.747Z,101186.97
2022-10-21T14:59:22.914Z,101186.05
2022-10-21T15:01:52.568Z,101179.32
2022-10-21T15:04:56.892Z,101174.94
2022-10-21T15:07:33.157Z,101174.66
2022-10-21T15:10:10.026Z,101174.89
2022-10-21T15:12:50.404Z,101182.62
2022-10-21T15:15:52.485Z,101193.06
2022-10-21T15:18:33.086Z,101192.26
2022-10-21T15:21:10.252Z,101193.50
2022-10-21T15:23:47.183Z,101194.94
2022-10-21T15:26:29.326Z,101196.20
2022-10-21T15:29:01.305Z,101198.48
2022-10-21T15:31:32.158Z,101207.58
2022-10-21T15:34:02.912Z,101207.98
2022-10-21T15:36:32.515Z,101209.56
2022-10-21T15:39:05.382Z,101215.77
2022-10-21T15:41:36.572Z,101206.78
2022-10-21T15:44:16.045Z,101212.27
2022-10-21T15:46:50.139Z,101215.29
2022-10-21T15:49:22.742Z,101219.02
2022-10-21T15:51:52.539Z,101224.81
2022-10-21T15:54:22.958Z,101222.53
2022-10-21T15:56:54.321Z,101217.89
2022-10-21T15:59:29.551Z,101223.98
2022-10-21T16:01:59.616Z,101226.66
2022-10-21T16:04:29.873Z,101218.73
2022-10-21T16:06:59.502Z,101221.50
2022-10-21T16:09:29.927Z,101216.83
2022-10-21T16:12:01.567Z,101220.84
2022-10-21T16:14:33.576Z,101219.06
2022-10-21T16:17:04.416Z,101224.59
2022-10-21T16:19:34.316Z,101223.66
2022-10-21T16:22:13.455Z,101226.97
2022-10-21T16:24:44.204Z,101215.81
2022-10-21T16:27:13.977Z,101216.04
2022-10-21T16:29:43.552Z,101213.91
2022-10-21T16:32:15.998Z,101219.05
2022-10-21T16:34:46.426Z,101217.27
2022-10-21T16:37:27.294Z,101197.18
2022-10-21T16:39:58.349Z,101200.53
2022-10-21T16:42:29.647Z,101199.64
2022-10-21T16:44:58.646Z,101191.07
2022-10-21T16:47:28.742Z,101189.64
2022-10-21T16:49:58.698Z,101185.78
2022-10-21T16:52:28.762Z,101178.28
2022-10-21T16:54:58.768Z,101182.85
2022-10-21T16:57:29.358Z,101186.56
2022-10-21T16:59:58.605Z,101176.70
2022-10-21T17:02:27.684Z,101182.49
2022-10-21T17:04:58.420Z,101172.63
2022-10-21T17:07:27.523Z,101165.98
2022-10-21T17:09:58.533Z,101172.84
2022-10-21T17:12:31.944Z,101167.84
2022-10-21T17:15:03.008Z,101165.55
2022-10-21T17:17:34.130Z,101159.41
2022-10-21T17:20:06.358Z,101157.77
2022-10-21T17:22:36.115Z,101150.69
2022-10-21T17:25:06.026Z,101148.98
2022-10-21T17:27:36.168Z,101152.83
2022-10-21T17:30:06.693Z,101161.27
2022-10-21T17:32:37.043Z,101157.12
2022-10-21T17:35:12.573Z,101160.97
2022-10-21T17:37:43.554Z,101164.11
2022-10-21T17:40:20.796Z,101157.33
2022-10-21T17:42:50.707Z,101152.04
2022-10-21T17:45:20.575Z,101152.89
2022-10-21T17:47:50.707Z,101158.19
2022-10-21T17:50:25.830Z,101163.89
2022-10-21T17:53:00.121Z,101165.81
2022-10-21T17:55:29.125Z,101164.23
2022-10-21T17:57:59.982Z,101158.31
2022-10-21T18:00:30.165Z,101157.09
2022-10-21T18:03:05.507Z,101153.52
2022-10-21T18:05:34.993Z,101152.05
2022-10-21T18:08:05.593Z,101149.34
2022-10-21T18:10:36.363Z,101149.34
2022-10-21T18:13:06.547Z,101147.05
2022-10-21T18:15:38.690Z,101147.83
2022-10-21T18:18:09.181Z,101143.90
2022-10-21T18:20:40.105Z,101138.33
2022-10-21T18:23:09.440Z,101140.91
2022-10-21T18:25:39.698Z,101141.55
2022-10-21T18:28:09.633Z,101137.40
2022-10-21T18:30:43.818Z,101134.10
2022-10-21T18:33:14.685Z,101126.61
2022-10-21T18:35:45.700Z,101133.39
2022-10-21T18:38:16.189Z,101132.39
2022-10-21T18:40:56.416Z,101135.38
2022-10-21T18:43:18.933Z,101145.02
2022-10-21T18:45:49.413Z,101137.66
2022-10-21T18:48:19.024Z,101129.30
2022-10-21T18:50:48.955Z,101133.37
2022-10-21T18:53:19.437Z,101134.36
2022-10-21T18:55:51.796Z,101133.72
2022-10-21T18:58:22.972Z,101135.30
2022-10-21T19:00:52.386Z,101136.80
2022-10-21T19:03:21.240Z,101130.66
2022-10-21T19:05:52.895Z,101136.63
2022-10-21T19:08:22.691Z,101140.12
2022-10-21T19:10:54.087Z,101144.69
2022-10-21T19:13:24.532Z,101147.53
2022-10-21T19:15:56.549Z,101149.75
2022-10-21T19:18:27.593Z,101147.17
2022-10-21T19:20:58.177Z,101152.37
2022-10-21T19:23:30.172Z,101152.37
2022-10-21T19:26:07.636Z,101146.87
2022-10-21T19:28:37.302Z,101150.58
2022-10-21T19:31:08.690Z,101141.72
2022-10-21T19:33:40.396Z,101147.64
2022-10-21T19:36:11.154Z,101148.14
2022-10-21T19:38:44.479Z,101143.94
2022-10-21T19:41:15.786Z,101149.72
2022-10-21T19:43:45.629Z,101141.63
2022-10-21T19:46:22.382Z,101142.77
2022-10-21T19:48:53.698Z,101142.77
2022-10-21T19:51:25.916Z,101138.48
2022-10-21T19:53:56.796Z,101148.10
2022-10-21T19:56:30.715Z,101144.14
2022-10-21T19:58:59.964Z,101141.92
2022-10-21T20:01:30.600Z,101135.15
2022-10-21T20:04:01.458Z,101140.47
2022-10-21T20:06:34.525Z,101142.92
2022-10-21T20:09:10.988Z,101142.42
2022-10-21T20:11:41.458Z,101140.70
2022-10-21T20:14:15.841Z,101148.25
2022-10-21T20:16:48.957Z,101144.46
2022-10-21T20:19:19.474Z,101142.38
2022-10-21T20:21:49.922Z,101151.15
2022-10-21T20:24:20.246Z,101154.98
2022-10-21T20:26:52.636Z,101152.14
2022-10-21T20:29:22.198Z,101140.17
2022-10-21T20:31:52.184Z,101143.88
2022-10-21T20:34:22.460Z,101150.78
2022-10-21T20:36:53.856Z,101152.05
2022-10-21T20:39:24.882Z,101148.52
2022-10-21T20:41:54.307Z,101146.09
2022-10-21T20:44:25.206Z,101141.88
2022-10-21T20:46:56.682Z,101146.81
2022-10-21T20:49:26.988Z,101150.78
2022-10-21T20:51:56.221Z,101149.34
2022-10-21T20:54:28.483Z,101151.31
2022-10-21T20:56:59.229Z,101153.17
2022-10-21T20:59:29.344Z,101140.61
2022-10-21T21:01:59.170Z,101143.19
2022-10-21T21:04:28.989Z,101144.27
2022-10-21T21:06:58.970Z,101140.34
2022-10-21T21:09:44.012Z,101124.00
2022-10-21T21:12:03.027Z,101129.91
2022-10-21T21:14:33.132Z,101125.26
2022-10-21T21:17:04.956Z,101118.53
2022-10-21T21:19:35.201Z,101113.02
2022-10-21T21:22:05.180Z,101118.80
2022-10-21T21:24:34.642Z,101113.52
2022-10-21T21:27:05.352Z,101112.02
2022-10-21T21:29:35.816Z,101110.90
2022-10-21T21:32:06.278Z,101107.47
2022-10-21T21:34:35.684Z,101102.55
2022-10-21T21:37:07.155Z,101105.02
2022-10-21T21:39:36.708Z,101100.47
2022-10-21T21:42:07.516Z,101097.48
2022-10-21T21:44:38.846Z,101100.66
2022-10-21T21:47:07.988Z,101097.53
2022-10-21T21:49:38.065Z,101090.49
2022-10-21T21:52:09.066Z,101076.45
2022-10-21T21:54:38.921Z,101079.16
2022-10-21T21:57:27.619Z,101077.80
2022-10-21T21:59:41.543Z,101086.06
2022-10-21T22:02:11.890Z,101082.63
2022-10-21T22:04:42.633Z,101084.84
2022-10-21T22:07:12.247Z,101077.08
2022-10-21T22:09:42.914Z,101073.38
2022-10-21T22:12:16.352Z,101078.89
2022-10-21T22:14:49.690Z,101072.61
2022-10-21T22:17:20.643Z,101074.73
2022-10-21T22:19:53.712Z,101078.08
2022-10-21T22:22:23.229Z,101081.64
2022-10-21T22:24:53.793Z,101078.16
2022-10-21T22:27:24.478Z,101086.02
2022-10-21T22:29:54.742Z,101084.89
2022-10-21T22:32:24.009Z,101087.83
2022-10-21T22:34:54.143Z,101088.82
2022-10-21T22:37:23.961Z,101080.47
2022-10-21T22:39:54.192Z,101073.73
2022-10-21T22:42:25.381Z,101073.73
2022-10-21T22:44:57.816Z,101069.54
2022-10-21T22:47:30.039Z,101072.02
2022-10-21T22:50:02.811Z,101067.37
2022-10-21T22:52:33.752Z,101071.57
2022-10-21T22:55:07.109Z,101067.15
2022-10-21T22:57:39.194Z,101067.51
2022-10-21T23:00:12.214Z,101062.31
2022-10-21T23:02:47.426Z,101059.83
2022-10-21T23:05:18.603Z,101060.19
2022-10-21T23:07:49.524Z,101059.20
2022-10-21T23:10:23.162Z,101057.98
2022-10-21T23:12:56.566Z,101055.63
2022-10-21T23:15:27.347Z,101048.77
2022-10-21T23:17:58.841Z,101047.19
2022-10-21T23:20:28.373Z,101050.53
2022-10-21T23:22:58.245Z,101058.30
2022-10-21T23:25:28.472Z,101052.16
2022-10-21T23:27:57.232Z,101042.31
2022-10-21T23:30:26.861Z,101039.75
2022-10-21T23:32:56.036Z,101053.42
2022-10-21T23:35:30.989Z,101047.28
2022-10-21T23:38:00.672Z,101045.20
2022-10-21T23:40:31.165Z,101040.16
2022-10-21T23:43:00.411Z,101031.30
2022-10-21T23:45:29.535Z,101035.77
2022-10-21T23:47:59.802Z,101026.93
2022-10-21T23:50:28.794Z,101023.36
2022-10-21T23:52:58.335Z,101022.23
2022-10-21T23:57:57.976Z,101019.25
